Time;durP1;ratioP1;P1;durP2;ratioP2;P2;SDS_P1;SDS_P2;PMS_P1;PMS_P2;Temp;Humidity;BMP_temperature;BMP_pressure;BME280_temperature;BME280_humidity;BME280_pressure;Samples;Min_cycle;Max_cycle;Signal;HPM_P1;HPM_P2
2024/02/29 00:01:57;;;;;;;22.13;10.87;;;6.60;99.90;;;;;;5022949;28;20022;-82
2024/02/29 00:04:28;;;;;;;17.83;10.83;;;6.60;99.90;;;;;;5023401;28;20045;-82
2024/02/29 00:06:55;;;;;;;19.43;11.17;;;6.50;99.90;;;;;;5020873;28;20050;-83
2024/02/29 00:09:20;;;;;;;16.57;10.27;;;6.50;99.90;;;;;;5020378;28;20425;-83
2024/02/29 00:11:48;;;;;;;19.50;10.87;;;6.60;99.90;;;;;;5020778;28;20057;-81
2024/02/29 00:14:13;;;;;;;19.27;10.10;;;6.50;99.90;;;;;;5019095;28;20041;-82
2024/02/29 00:16:43;;;;;;;19.00;10.93;;;6.50;99.90;;;;;;5019333;28;20421;-81
2024/02/29 00:19:09;;;;;;;17.30;9.73;;;6.60;99.90;;;;;;5034960;28;20029;-85
2024/02/29 00:21:35;;;;;;;18.40;10.57;;;6.50;99.90;;;;;;5035483;28;20636;-83
2024/02/29 00:24:00;;;;;;;21.50;11.17;;;6.50;99.90;;;;;;5019705;28;20022;-84
2024/02/29 00:26:26;;;;;;;16.20;10.00;;;6.50;99.90;;;;;;5020425;28;20110;-84
2024/02/29 00:28:52;;;;;;;16.43;9.57;;;6.50;99.90;;;;;;5019569;28;20052;-83
2024/02/29 00:31:18;;;;;;;17.07;9.20;;;6.60;99.90;;;;;;5028061;28;20029;-85
2024/02/29 00:33:43;;;;;;;18.03;9.37;;;6.60;99.90;;;;;;5020724;28;20600;-83
2024/02/29 00:36:09;;;;;;;17.50;9.03;;;6.60;99.90;;;;;;5023958;28;20029;-82
2024/02/29 00:38:36;;;;;;;17.43;9.27;;;6.60;99.90;;;;;;5035276;28;20019;-83
2024/02/29 00:41:02;;;;;;;15.60;8.57;;;6.70;99.90;;;;;;5019961;28;20052;-83
2024/02/29 00:43:27;;;;;;;15.93;9.03;;;6.70;99.90;;;;;;5026206;28;20082;-83
2024/02/29 00:45:53;;;;;;;14.20;7.63;;;6.70;99.90;;;;;;5035850;28;20014;-82
2024/02/29 00:48:18;;;;;;;14.63;7.97;;;6.70;99.90;;;;;;5044661;28;20021;-84
2024/02/29 00:50:44;;;;;;;18.17;7.73;;;6.80;99.90;;;;;;5045472;28;20395;-83
2024/02/29 00:53:10;;;;;;;15.63;8.40;;;6.80;99.90;;;;;;5046194;28;20037;-83
2024/02/29 00:55:36;;;;;;;16.77;8.23;;;6.80;99.90;;;;;;5045686;28;20017;-82
2024/02/29 00:58:01;;;;;;;14.90;7.00;;;6.80;99.90;;;;;;5045474;28;20101;-83
2024/02/29 01:00:27;;;;;;;16.40;7.90;;;6.80;99.90;;;;;;5044603;28;20131;-83
2024/02/29 01:02:53;;;;;;;14.20;7.30;;;6.90;99.90;;;;;;5046011;28;20026;-83
2024/02/29 01:05:19;;;;;;;17.03;8.57;;;6.90;99.90;;;;;;5044735;28;20028;-83
2024/02/29 01:07:44;;;;;;;17.77;7.90;;;6.90;99.90;;;;;;5045555;28;20045;-83
2024/02/29 01:10:13;;;;;;;15.23;7.07;;;6.90;99.90;;;;;;5044682;28;20511;-83
2024/02/29 01:12:41;;;;;;;15.40;8.00;;;6.90;99.90;;;;;;5045549;28;20056;-82
2024/02/29 01:15:11;;;;;;;16.87;8.70;;;7.00;99.90;;;;;;5044733;28;20124;-83
2024/02/29 01:17:37;;;;;;;16.80;7.83;;;6.90;99.90;;;;;;5044953;28;20048;-84
2024/02/29 01:20:07;;;;;;;14.30;7.97;;;7.00;99.90;;;;;;5045434;28;20025;-83
2024/02/29 01:22:33;;;;;;;15.37;7.63;;;7.00;99.90;;;;;;5044641;28;20025;-83
2024/02/29 01:24:59;;;;;;;15.47;8.23;;;7.00;99.90;;;;;;5045910;28;20033;-83
2024/02/29 01:27:25;;;;;;;15.13;7.40;;;7.00;99.90;;;;;;5044483;28;20037;-84
2024/02/29 01:29:50;;;;;;;14.60;7.50;;;7.10;99.90;;;;;;5044503;28;20083;-84
2024/02/29 01:32:16;;;;;;;15.33;8.10;;;7.10;99.90;;;;;;5044367;28;20036;-84
2024/02/29 01:34:42;;;;;;;17.90;7.50;;;7.10;99.90;;;;;;5044728;28;20431;-84
2024/02/29 01:37:07;;;;;;;15.77;8.67;;;7.00;99.90;;;;;;5045535;28;20075;-83
2024/02/29 01:39:34;;;;;;;16.07;7.60;;;7.10;99.90;;;;;;5044814;28;20148;-83
2024/02/29 01:42:00;;;;;;;15.17;8.20;;;7.10;99.90;;;;;;5045258;28;20030;-84
2024/02/29 01:44:29;;;;;;;16.00;8.13;;;7.10;99.90;;;;;;5043804;28;20051;-83
2024/02/29 01:46:55;;;;;;;15.30;8.70;;;7.10;99.90;;;;;;5045121;28;20140;-84
2024/02/29 01:49:22;;;;;;;16.23;8.33;;;7.10;99.90;;;;;;5046333;28;20032;-83
2024/02/29 01:51:49;;;;;;;15.97;8.00;;;7.10;99.90;;;;;;5044437;28;20060;-83
2024/02/29 01:54:15;;;;;;;15.77;8.93;;;7.10;99.90;;;;;;5041259;28;20093;-85
2024/02/29 01:56:41;;;;;;;17.13;8.10;;;7.10;99.90;;;;;;5041098;28;20376;-84
2024/02/29 01:59:07;;;;;;;20.20;9.53;;;7.20;99.90;;;;;;5041882;28;20022;-84
2024/02/29 02:01:34;;;;;;;21.13;9.77;;;7.10;99.90;;;;;;5040697;28;20643;-84
2024/02/29 02:04:00;;;;;;;18.43;9.70;;;7.10;99.90;;;;;;5041618;28;20122;-84
2024/02/29 02:06:26;;;;;;;17.77;9.00;;;7.10;99.90;;;;;;5041220;28;20045;-84
2024/02/29 02:08:52;;;;;;;16.97;8.97;;;7.10;99.90;;;;;;5041389;28;20045;-84
2024/02/29 02:11:18;;;;;;;19.67;9.83;;;7.20;99.90;;;;;;5041467;28;20036;-84
2024/02/29 02:13:43;;;;;;;19.43;9.50;;;7.20;99.90;;;;;;5040581;28;20029;-84
2024/02/29 02:16:11;;;;;;;16.73;8.77;;;7.20;99.90;;;;;;5041662;28;20409;-83
2024/02/29 02:18:36;;;;;;;18.27;9.17;;;7.20;99.90;;;;;;5040701;28;20024;-82
2024/02/29 02:21:02;;;;;;;17.73;8.87;;;7.20;99.90;;;;;;5041567;28;20014;-82
2024/02/29 02:23:28;;;;;;;17.33;9.43;;;7.20;99.90;;;;;;5041038;28;20021;-83
2024/02/29 02:25:57;;;;;;;18.57;8.53;;;7.20;99.90;;;;;;5040965;28;20458;-84
2024/02/29 02:28:26;;;;;;;23.50;10.10;;;7.20;99.90;;;;;;5041358;28;20064;-83
2024/02/29 02:30:52;;;;;;;18.33;8.90;;;7.20;99.90;;;;;;5040040;28;20025;-84
2024/02/29 02:33:19;;;;;;;19.70;9.73;;;7.20;99.90;;;;;;5041332;28;20057;-84
2024/02/29 02:35:44;;;;;;;19.47;10.20;;;7.20;99.90;;;;;;5040232;28;20465;-84
2024/02/29 02:38:10;;;;;;;18.83;10.00;;;7.20;99.90;;;;;;5041168;28;20021;-83
2024/02/29 02:40:36;;;;;;;18.40;9.40;;;7.20;99.90;;;;;;5041279;28;20034;-84
2024/02/29 02:43:02;;;;;;;19.90;10.40;;;7.20;99.80;;;;;;5042035;28;20029;-83
2024/02/29 02:45:28;;;;;;;21.80;10.47;;;7.20;99.80;;;;;;5041161;28;20025;-84
2024/02/29 02:47:54;;;;;;;18.93;9.67;;;7.20;99.80;;;;;;5040198;28;20022;-84
2024/02/29 02:50:20;;;;;;;19.53;9.70;;;7.20;99.70;;;;;;5036957;28;20032;-85
2024/02/29 02:52:46;;;;;;;19.90;9.30;;;7.20;99.70;;;;;;5019943;28;20105;-85
2024/02/29 02:55:11;;;;;;;20.97;10.37;;;7.20;99.70;;;;;;5021020;28;20040;-84
2024/02/29 02:57:37;;;;;;;24.57;10.23;;;7.20;99.50;;;;;;5020505;28;20022;-83
2024/02/29 03:00:04;;;;;;;20.77;10.60;;;7.20;99.50;;;;;;5020828;28;20036;-83
2024/02/29 03:02:30;;;;;;;22.90;10.87;;;7.20;99.60;;;;;;5021021;28;20028;-84
2024/02/29 03:04:55;;;;;;;19.23;9.97;;;7.20;99.60;;;;;;5020457;28;20112;-83
2024/02/29 03:07:21;;;;;;;19.13;9.77;;;7.20;99.40;;;;;;5020739;28;20050;-86
2024/02/29 03:09:47;;;;;;;16.10;9.57;;;7.20;99.40;;;;;;5021460;28;20033;-84
2024/02/29 03:12:13;;;;;;;21.23;11.20;;;7.10;99.40;;;;;;5020990;28;20022;-83
2024/02/29 03:14:39;;;;;;;22.07;11.10;;;7.10;99.50;;;;;;5020242;28;20577;-83
2024/02/29 03:17:05;;;;;;;19.67;10.23;;;7.10;99.50;;;;;;5020793;28;20018;-83
2024/02/29 03:19:30;;;;;;;19.83;9.73;;;7.10;99.50;;;;;;5020580;28;20033;-85
2024/02/29 03:21:56;;;;;;;18.67;9.73;;;7.20;99.60;;;;;;5020146;28;20014;-84
2024/02/29 03:24:22;;;;;;;21.10;10.67;;;7.10;99.70;;;;;;5020282;28;20018;-83
2024/02/29 03:26:47;;;;;;;21.00;10.40;;;7.10;99.70;;;;;;5020206;28;20060;-82
2024/02/29 03:29:13;;;;;;;24.27;11.43;;;7.20;99.90;;;;;;5020657;28;20410;-82
2024/02/29 03:31:43;;;;;;;19.97;10.70;;;7.10;99.90;;;;;;5019228;28;20434;-86
2024/02/29 03:34:08;;;;;;;17.20;9.43;;;7.10;99.90;;;;;;5020280;28;20034;-86
2024/02/29 03:36:34;;;;;;;20.57;10.13;;;7.10;99.90;;;;;;5020375;28;20040;-84
2024/02/29 03:39:00;;;;;;;20.77;10.53;;;7.20;99.90;;;;;;5020115;28;20478;-83
2024/02/29 03:41:26;;;;;;;19.37;10.93;;;7.20;99.90;;;;;;5037068;28;20033;-84
2024/02/29 03:43:52;;;;;;;21.63;10.70;;;7.20;99.90;;;;;;5021361;28;20068;-84
2024/02/29 03:46:17;;;;;;;21.47;10.90;;;7.20;99.90;;;;;;5021131;28;20018;-83
2024/02/29 03:48:43;;;;;;;21.07;10.77;;;7.20;99.90;;;;;;5020094;28;20037;-84
2024/02/29 03:51:09;;;;;;;20.83;11.20;;;7.20;99.90;;;;;;5021093;28;20026;-82
2024/02/29 03:53:34;;;;;;;22.33;12.13;;;7.20;99.90;;;;;;5020282;28;20047;-82
2024/02/29 03:56:00;;;;;;;19.37;10.70;;;7.20;99.90;;;;;;5019696;28;20049;-82
2024/02/29 03:58:26;;;;;;;19.93;11.07;;;7.20;99.90;;;;;;5021437;28;20025;-82
2024/02/29 04:00:52;;;;;;;23.53;10.90;;;7.20;99.90;;;;;;5019535;28;20061;-82
2024/02/29 04:03:19;;;;;;;21.53;11.63;;;7.30;99.90;;;;;;5020030;28;20495;-82
2024/02/29 04:05:44;;;;;;;20.43;10.43;;;7.20;99.90;;;;;;5021108;28;20041;-83
2024/02/29 04:08:13;;;;;;;20.83;11.47;;;7.30;99.90;;;;;;5022661;28;20033;-84
2024/02/29 04:10:41;;;;;;;20.53;11.10;;;7.20;99.90;;;;;;5039440;28;20108;-83
2024/02/29 04:13:07;;;;;;;19.33;10.10;;;7.30;99.90;;;;;;5022395;28;20022;-83
2024/02/29 04:15:33;;;;;;;21.60;11.83;;;7.30;99.90;;;;;;5022749;28;20017;-84
2024/02/29 04:18:00;;;;;;;22.43;11.40;;;7.30;99.90;;;;;;5021929;28;20453;-83
2024/02/29 04:20:26;;;;;;;20.77;10.90;;;7.20;99.90;;;;;;5022961;28;20523;-83
2024/02/29 04:22:51;;;;;;;19.80;10.33;;;7.30;99.90;;;;;;5021544;28;20021;-84
2024/02/29 04:25:22;;;;;;;24.63;12.50;;;7.30;99.90;;;;;;5022914;28;20021;-84
2024/02/29 04:27:51;;;;;;;20.70;11.10;;;7.30;99.90;;;;;;5022305;28;20029;-83
2024/02/29 04:30:17;;;;;;;21.27;12.27;;;7.30;99.90;;;;;;5022672;28;20024;-84
2024/02/29 04:32:44;;;;;;;21.37;10.97;;;7.20;99.90;;;;;;5022126;28;20033;-83
2024/02/29 04:35:09;;;;;;;21.10;11.30;;;7.20;99.90;;;;;;5021653;28;20116;-83
2024/02/29 04:37:36;;;;;;;22.50;11.23;;;7.30;99.90;;;;;;5022722;28;20075;-83
2024/02/29 04:40:03;;;;;;;20.23;11.53;;;7.20;99.90;;;;;;5024682;28;20537;-83
2024/02/29 04:42:32;;;;;;;21.90;10.90;;;7.20;99.90;;;;;;5042523;28;20029;-83
2024/02/29 04:44:58;;;;;;;18.73;11.03;;;7.20;99.90;;;;;;5060222;28;20021;-83
2024/02/29 04:47:24;;;;;;;21.37;10.63;;;7.20;99.90;;;;;;5041609;28;20032;-83
2024/02/29 04:49:50;;;;;;;21.57;11.53;;;7.20;99.90;;;;;;5060505;28;20333;-83
2024/02/29 04:52:16;;;;;;;17.57;10.40;;;7.20;99.90;;;;;;5041968;28;20021;-84
2024/02/29 04:54:42;;;;;;;19.73;10.97;;;7.20;99.90;;;;;;5042502;28;20029;-83
2024/02/29 04:57:08;;;;;;;20.37;10.70;;;7.20;99.90;;;;;;5041167;28;20032;-83
2024/02/29 04:59:33;;;;;;;19.17;10.10;;;7.20;99.90;;;;;;5041764;28;20033;-83
2024/02/29 05:01:59;;;;;;;20.13;10.53;;;7.20;99.90;;;;;;5040958;28;20067;-84
2024/02/29 05:04:25;;;;;;;21.17;10.93;;;7.20;99.90;;;;;;5041743;28;20029;-83
2024/02/29 05:06:53;;;;;;;20.10;10.93;;;7.10;99.90;;;;;;5038113;28;20056;-83
2024/02/29 05:09:19;;;;;;;21.77;10.63;;;7.10;99.90;;;;;;5037765;28;20129;-83
2024/02/29 05:11:45;;;;;;;20.47;10.23;;;7.10;99.90;;;;;;5038543;28;20032;-84
2024/02/29 05:14:11;;;;;;;19.33;10.67;;;7.10;99.90;;;;;;5037975;28;20030;-84
2024/02/29 05:16:36;;;;;;;20.77;10.70;;;7.10;99.90;;;;;;5038952;28;20017;-84
2024/02/29 05:19:02;;;;;;;21.17;10.77;;;7.10;99.90;;;;;;5039466;28;20049;-84
2024/02/29 05:21:28;;;;;;;22.00;11.17;;;7.10;99.90;;;;;;5038349;28;20414;-84
2024/02/29 05:23:54;;;;;;;21.80;11.73;;;7.10;99.90;;;;;;5037963;28;20049;-85
2024/02/29 05:26:20;;;;;;;20.07;10.93;;;7.10;99.90;;;;;;5038422;28;20017;-84
2024/02/29 05:28:45;;;;;;;21.23;10.57;;;7.00;99.90;;;;;;5041305;28;20037;-84
2024/02/29 05:31:11;;;;;;;17.90;10.17;;;7.10;99.90;;;;;;5041018;28;20036;-82
2024/02/29 05:33:40;;;;;;;16.03;9.67;;;7.00;99.90;;;;;;5043887;28;20042;-83
2024/02/29 05:36:06;;;;;;;22.07;11.77;;;7.00;99.90;;;;;;5041614;28;20069;-83
2024/02/29 05:38:32;;;;;;;23.90;12.27;;;7.00;99.90;;;;;;5042066;28;20021;-82
2024/02/29 05:40:58;;;;;;;22.07;12.07;;;7.10;99.90;;;;;;5041896;28;20425;-83
2024/02/29 05:43:25;;;;;;;21.43;10.87;;;7.00;99.90;;;;;;5042010;28;20451;-82
2024/02/29 05:45:51;;;;;;;21.20;11.77;;;7.00;99.90;;;;;;5042836;28;20097;-82
2024/02/29 05:48:17;;;;;;;23.83;11.43;;;7.00;99.90;;;;;;5041020;28;20017;-83
2024/02/29 05:50:42;;;;;;;22.70;11.80;;;7.00;99.90;;;;;;5041250;28;20025;-82
2024/02/29 05:53:08;;;;;;;21.70;11.80;;;7.00;99.90;;;;;;5038966;28;20450;-82
2024/02/29 05:55:34;;;;;;;20.63;10.77;;;7.00;99.90;;;;;;5031172;28;20470;-82
2024/02/29 05:57:59;;;;;;;18.93;10.70;;;7.00;99.90;;;;;;5023286;28;20014;-82
2024/02/29 06:00:25;;;;;;;18.90;10.87;;;7.10;99.90;;;;;;5033776;28;20025;-81
2024/02/29 06:02:51;;;;;;;19.33;10.20;;;7.10;99.90;;;;;;5040906;28;20085;-79
2024/02/29 06:05:18;;;;;;;22.73;11.50;;;7.10;99.90;;;;;;5040998;28;20018;-80
2024/02/29 06:07:44;;;;;;;20.77;11.17;;;7.10;99.90;;;;;;5021726;28;20042;-84
2024/02/29 06:10:10;;;;;;;20.73;11.80;;;7.10;99.90;;;;;;5021335;28;20040;-81
2024/02/29 06:12:36;;;;;;;21.40;11.53;;;7.10;99.90;;;;;;5021765;28;20454;-82
2024/02/29 06:15:03;;;;;;;20.77;10.13;;;7.20;99.90;;;;;;5021479;28;20034;-81
2024/02/29 06:17:28;;;;;;;19.87;11.40;;;7.20;99.90;;;;;;5022775;28;20018;-83
2024/02/29 06:19:54;;;;;;;19.87;10.70;;;7.20;99.90;;;;;;5041433;28;20030;-82
2024/02/29 06:22:22;;;;;;;18.60;11.07;;;7.20;99.90;;;;;;5040614;28;20014;-82
2024/02/29 06:24:49;;;;;;;18.37;9.90;;;7.20;99.90;;;;;;5040561;28;20109;-82
2024/02/29 06:27:16;;;;;;;18.43;10.13;;;7.20;99.90;;;;;;5039862;28;20017;-81
2024/02/29 06:29:42;;;;;;;20.33;11.00;;;7.20;99.90;;;;;;5038297;28;20026;-82
2024/02/29 06:32:08;;;;;;;20.03;10.47;;;7.30;99.90;;;;;;5041402;28;20071;-81
2024/02/29 06:34:33;;;;;;;19.53;10.30;;;7.30;99.90;;;;;;5040240;28;20045;-82
2024/02/29 06:36:59;;;;;;;21.17;11.17;;;7.30;99.90;;;;;;5040325;28;20013;-81
2024/02/29 06:39:25;;;;;;;15.33;9.17;;;7.30;99.90;;;;;;5039831;28;20033;-81
2024/02/29 06:41:50;;;;;;;18.90;10.83;;;7.30;99.90;;;;;;5039323;28;20040;-82
2024/02/29 06:44:16;;;;;;;22.40;9.90;;;7.40;99.90;;;;;;5022724;28;20013;-82
2024/02/29 06:46:42;;;;;;;18.10;9.37;;;7.40;99.90;;;;;;5035779;28;20037;-82
2024/02/29 06:49:08;;;;;;;19.03;10.53;;;7.40;99.90;;;;;;5036969;28;20030;-82
2024/02/29 06:51:35;;;;;;;21.47;10.47;;;7.40;99.90;;;;;;5020759;28;20033;-82
2024/02/29 06:54:01;;;;;;;23.43;10.57;;;7.40;99.90;;;;;;5020704;28;20048;-81
2024/02/29 06:56:27;;;;;;;17.57;10.23;;;7.40;99.90;;;;;;5020779;28;20025;-82
2024/02/29 06:58:52;;;;;;;19.00;9.97;;;7.50;99.90;;;;;;5022878;28;20397;-81
2024/02/29 07:01:21;;;;;;;17.13;9.43;;;7.50;99.90;;;;;;5031029;28;20486;-82
2024/02/29 07:03:49;;;;;;;22.30;10.87;;;7.50;99.90;;;;;;5020694;28;20025;-83
2024/02/29 07:06:16;;;;;;;17.37;9.67;;;7.50;99.90;;;;;;5019946;28;20034;-81
2024/02/29 07:08:42;;;;;;;17.77;10.23;;;7.50;99.90;;;;;;5020011;28;20053;-83
2024/02/29 07:11:11;;;;;;;15.80;9.03;;;7.60;99.90;;;;;;5021076;28;20022;-83
2024/02/29 07:13:37;;;;;;;17.30;9.60;;;7.60;99.90;;;;;;5020183;28;20390;-80
2024/02/29 07:16:03;;;;;;;17.87;10.20;;;7.60;99.90;;;;;;5031298;28;20094;-81
2024/02/29 07:18:29;;;;;;;22.40;10.67;;;7.60;99.90;;;;;;5038839;28;20095;-83
2024/02/29 07:20:55;;;;;;;18.43;10.13;;;7.60;99.90;;;;;;5035437;28;20033;-81
2024/02/29 07:23:21;;;;;;;17.63;9.47;;;7.60;99.90;;;;;;5019959;28;20022;-81
2024/02/29 07:25:46;;;;;;;16.97;10.20;;;7.80;99.90;;;;;;5021903;28;20030;-80
2024/02/29 07:28:12;;;;;;;17.77;9.60;;;7.70;99.90;;;;;;5022269;28;20113;-82
2024/02/29 07:30:38;;;;;;;21.47;11.13;;;7.70;99.90;;;;;;5037148;28;20036;-83
2024/02/29 07:33:04;;;;;;;17.10;9.17;;;7.70;99.90;;;;;;5004465;28;20072;-82
2024/02/29 07:35:31;;;;;;;18.83;10.27;;;7.70;99.90;;;;;;5019546;28;20034;-83
2024/02/29 07:37:57;;;;;;;17.53;9.40;;;7.80;99.90;;;;;;5021236;28;20026;-82
2024/02/29 07:40:23;;;;;;;18.83;9.23;;;7.80;99.90;;;;;;5035580;28;20038;-83
2024/02/29 07:42:48;;;;;;;19.93;11.40;;;7.80;99.90;;;;;;5019202;28;20339;-83
2024/02/29 07:45:14;;;;;;;19.80;9.73;;;7.80;99.90;;;;;;5019698;28;20049;-82
2024/02/29 07:47:40;;;;;;;18.50;9.17;;;7.80;99.90;;;;;;5019849;28;20033;-82
2024/02/29 07:50:07;;;;;;;18.10;9.10;;;7.90;99.90;;;;;;5020013;28;20021;-82
2024/02/29 07:52:33;;;;;;;18.40;9.50;;;7.90;99.90;;;;;;5018225;28;20022;-82
2024/02/29 07:54:59;;;;;;;16.53;8.07;;;7.90;99.90;;;;;;5019722;28;20034;-81
2024/02/29 07:57:24;;;;;;;17.77;9.37;;;7.90;99.90;;;;;;5019493;28;20018;-82
2024/02/29 07:59:50;;;;;;;19.17;9.80;;;8.00;99.90;;;;;;5019457;28;20104;-81
2024/02/29 08:02:16;;;;;;;18.10;10.23;;;8.00;99.90;;;;;;5019564;28;20044;-81
2024/02/29 08:04:42;;;;;;;18.03;9.83;;;8.00;99.90;;;;;;5019130;28;20085;-81
2024/02/29 08:07:08;;;;;;;16.70;9.73;;;8.00;99.90;;;;;;5022399;28;20041;-82
2024/02/29 08:09:34;;;;;;;19.40;9.63;;;8.00;99.90;;;;;;5022337;28;20033;-81
2024/02/29 08:12:01;;;;;;;19.80;9.13;;;8.00;99.90;;;;;;5040869;28;20043;-81
2024/02/29 08:14:27;;;;;;;21.47;10.20;;;8.00;99.90;;;;;;5022211;28;20060;-82
2024/02/29 08:16:53;;;;;;;18.30;10.03;;;8.10;99.90;;;;;;5022766;28;20022;-82
2024/02/29 08:19:19;;;;;;;18.97;10.47;;;8.10;99.90;;;;;;5022635;28;20024;-82
2024/02/29 08:21:44;;;;;;;16.80;9.53;;;8.10;99.90;;;;;;5022251;28;20025;-82
2024/02/29 08:24:10;;;;;;;18.40;9.77;;;8.20;99.90;;;;;;5022438;28;20084;-82
2024/02/29 08:26:36;;;;;;;18.23;10.60;;;8.20;99.90;;;;;;5022153;28;20040;-82
2024/02/29 08:29:01;;;;;;;20.17;11.20;;;8.20;99.90;;;;;;5022430;28;20091;-82
2024/02/29 08:31:27;;;;;;;19.77;10.60;;;8.20;99.90;;;;;;5021036;28;20060;-81
2024/02/29 08:33:53;;;;;;;18.03;9.27;;;8.20;99.90;;;;;;5022418;28;20103;-81
2024/02/29 08:36:18;;;;;;;17.57;9.80;;;8.30;99.90;;;;;;5022115;28;20029;-81
2024/02/29 08:38:44;;;;;;;16.03;9.27;;;8.30;99.90;;;;;;5022425;28;20017;-81
2024/02/29 08:41:10;;;;;;;20.67;10.23;;;8.30;99.90;;;;;;5040187;28;20056;-82
2024/02/29 08:43:36;;;;;;;19.00;9.80;;;8.30;99.90;;;;;;5022071;28;20073;-83
2024/02/29 08:46:03;;;;;;;19.13;10.17;;;8.30;99.90;;;;;;5022342;28;20335;-82
2024/02/29 08:48:29;;;;;;;22.00;10.30;;;8.30;99.90;;;;;;5021594;28;20079;-82
2024/02/29 08:50:55;;;;;;;20.07;11.07;;;8.30;99.90;;;;;;5022319;28;20089;-83
2024/02/29 08:53:22;;;;;;;17.73;9.00;;;8.40;99.90;;;;;;5021659;28;20068;-82
2024/02/29 08:55:47;;;;;;;17.03;9.20;;;8.40;99.90;;;;;;5022095;28;20017;-82
2024/02/29 08:58:13;;;;;;;19.13;10.27;;;8.40;99.90;;;;;;5021727;28;20073;-82
2024/02/29 09:00:39;;;;;;;17.27;9.63;;;8.40;99.90;;;;;;5021776;28;20021;-82
2024/02/29 09:03:04;;;;;;;16.67;9.37;;;8.50;99.90;;;;;;5041886;28;20516;-83
2024/02/29 09:05:30;;;;;;;18.73;9.80;;;8.50;99.90;;;;;;5043726;28;20432;-81
2024/02/29 09:07:56;;;;;;;19.10;10.50;;;8.50;99.90;;;;;;5043806;28;20045;-81
2024/02/29 09:10:22;;;;;;;16.67;9.43;;;8.60;99.90;;;;;;5025383;28;20092;-83
2024/02/29 09:12:48;;;;;;;16.63;8.87;;;8.60;99.90;;;;;;5025650;28;20025;-84
2024/02/29 09:15:13;;;;;;;19.17;9.63;;;8.60;99.90;;;;;;5025588;28;20026;-82
2024/02/29 09:17:39;;;;;;;16.13;8.80;;;8.60;99.90;;;;;;5025751;28;20013;-81
2024/02/29 09:20:06;;;;;;;18.80;9.30;;;8.60;99.90;;;;;;5026017;28;20057;-81
2024/02/29 09:22:32;;;;;;;17.57;10.07;;;8.70;99.90;;;;;;5025229;28;20059;-82
2024/02/29 09:24:57;;;;;;;17.30;9.13;;;8.70;99.90;;;;;;5026045;28;20072;-81
2024/02/29 09:27:23;;;;;;;15.83;8.63;;;8.70;99.90;;;;;;5025180;28;20083;-82
2024/02/29 09:29:49;;;;;;;16.40;9.97;;;8.80;99.90;;;;;;5025414;28;20041;-82
2024/02/29 09:32:14;;;;;;;15.57;9.07;;;8.80;99.90;;;;;;5043025;28;20047;-82
2024/02/29 09:34:40;;;;;;;17.13;9.33;;;8.80;99.90;;;;;;5025404;28;20032;-82
2024/02/29 09:37:06;;;;;;;15.77;9.53;;;8.90;99.90;;;;;;5025354;28;20049;-81
2024/02/29 09:39:32;;;;;;;17.57;10.20;;;8.90;99.90;;;;;;5042939;28;20036;-81
2024/02/29 09:41:58;;;;;;;17.10;8.57;;;8.90;99.90;;;;;;5025431;28;20028;-82
2024/02/29 09:44:24;;;;;;;21.43;9.97;;;9.00;99.90;;;;;;5024669;28;20049;-82
2024/02/29 09:46:50;;;;;;;17.50;10.00;;;9.00;99.90;;;;;;5043293;28;20102;-81
2024/02/29 09:49:16;;;;;;;18.37;8.90;;;9.00;99.90;;;;;;5024815;28;20024;-82
2024/02/29 09:51:44;;;;;;;19.47;10.20;;;9.10;99.90;;;;;;5024904;28;20085;-82
2024/02/29 09:54:20;;;;;;;16.37;8.60;;;9.10;99.90;;;;;;5042822;28;20033;-83
2024/02/29 09:56:46;;;;;;;19.47;8.37;;;9.20;99.90;;;;;;5041795;28;20092;-82
2024/02/29 09:59:17;;;;;;;14.43;8.27;;;9.20;99.90;;;;;;5025256;28;20020;-81
2024/02/29 10:01:52;;;;;;;17.03;8.17;;;9.30;99.90;;;;;;5042072;28;20086;-81
2024/02/29 10:04:18;;;;;;;15.83;8.83;;;9.40;99.90;;;;;;5024209;28;20065;-82
2024/02/29 10:06:44;;;;;;;15.47;8.33;;;9.40;99.90;;;;;;5024788;28;20108;-81
2024/02/29 10:09:10;;;;;;;14.70;8.17;;;9.50;99.90;;;;;;5024245;28;20097;-81
2024/02/29 10:11:43;;;;;;;16.30;9.13;;;9.50;99.90;;;;;;5024326;28;20029;-82
2024/02/29 10:14:25;;;;;;;16.77;8.47;;;9.50;99.90;;;;;;5023352;28;20039;-82
2024/02/29 10:16:51;;;;;;;14.40;7.93;;;9.60;99.90;;;;;;5040506;28;20541;-82
2024/02/29 10:19:19;;;;;;;13.63;8.40;;;9.60;99.90;;;;;;5041618;28;20076;-82
2024/02/29 10:21:45;;;;;;;16.03;9.13;;;9.70;99.90;;;;;;5024306;28;20033;-83
2024/02/29 10:24:10;;;;;;;15.27;8.70;;;9.70;99.90;;;;;;5024492;28;20113;-83
2024/02/29 10:26:36;;;;;;;13.00;7.50;;;9.70;99.90;;;;;;5024105;28;20030;-82
2024/02/29 10:29:08;;;;;;;16.73;8.73;;;9.70;99.90;;;;;;5024380;28;20091;-83
2024/02/29 10:31:34;;;;;;;13.93;8.23;;;9.70;99.90;;;;;;5041274;28;20091;-81
2024/02/29 10:34:00;;;;;;;15.60;8.70;;;9.70;99.90;;;;;;5024070;28;20033;-81
2024/02/29 10:36:25;;;;;;;16.03;9.13;;;9.80;99.90;;;;;;5041957;28;20164;-82
2024/02/29 10:38:51;;;;;;;14.70;7.73;;;9.70;99.90;;;;;;5023857;28;20081;-82
2024/02/29 10:41:19;;;;;;;14.20;8.20;;;9.80;99.90;;;;;;5023815;28;20026;-82
2024/02/29 10:43:48;;;;;;;15.30;7.70;;;9.80;99.90;;;;;;5023727;28;20204;-82
2024/02/29 10:46:16;;;;;;;18.30;7.93;;;9.80;99.90;;;;;;5024151;28;20034;-83
2024/02/29 10:48:49;;;;;;;14.03;7.77;;;9.90;99.90;;;;;;5023364;28;20060;-82
2024/02/29 10:51:36;;;;;;;13.23;8.27;;;9.90;99.90;;;;;;5024161;28;20041;-81
2024/02/29 10:54:21;;;;;;;15.03;7.83;;;10.00;99.90;;;;;;5023342;28;20041;-82
2024/02/29 10:56:48;;;;;;;15.90;9.07;;;10.00;99.90;;;;;;5023832;28;20092;-82
2024/02/29 10:59:18;;;;;;;18.47;9.33;;;10.00;99.90;;;;;;5024192;28;20036;-82
2024/02/29 11:01:47;;;;;;;14.17;7.57;;;10.00;99.90;;;;;;5023936;28;20022;-82
2024/02/29 11:04:16;;;;;;;14.20;7.63;;;10.00;99.90;;;;;;5024149;28;20504;-82
2024/02/29 11:06:46;;;;;;;14.57;7.87;;;10.10;99.90;;;;;;5023574;28;20026;-83
2024/02/29 11:09:17;;;;;;;15.47;8.87;;;10.10;99.90;;;;;;5023601;28;20077;-82
2024/02/29 11:11:45;;;;;;;14.27;8.13;;;10.10;99.90;;;;;;5024156;28;20025;-82
2024/02/29 11:14:12;;;;;;;16.17;7.67;;;10.10;99.90;;;;;;5023390;28;20099;-81
2024/02/29 11:16:45;;;;;;;13.87;7.80;;;10.00;99.90;;;;;;5023349;28;20021;-82
2024/02/29 11:19:18;;;;;;;13.98;7.95;;;10.00;99.90;;;;;;5022834;28;20083;-81
2024/02/29 11:21:45;;;;;;;12.60;7.57;;;10.00;99.90;;;;;;5023296;28;20124;-82
2024/02/29 11:24:18;;;;;;;13.00;7.33;;;10.00;99.90;;;;;;5022999;28;20060;-82
2024/02/29 11:26:44;;;;;;;12.82;6.80;;;10.10;99.90;;;;;;5022793;28;20029;-82
2024/02/29 11:29:20;;;;;;;14.83;7.17;;;10.10;99.90;;;;;;5023608;28;20033;-82
2024/02/29 11:31:54;;;;;;;12.20;6.60;;;10.10;99.90;;;;;;5022171;28;20017;-82
2024/02/29 11:34:22;;;;;;;13.30;7.43;;;10.10;99.90;;;;;;5022805;28;20037;-82
2024/02/29 11:36:49;;;;;;;13.48;7.53;;;10.10;99.90;;;;;;5022634;28;20033;-81
2024/02/29 11:39:22;;;;;;;14.50;7.63;;;10.10;99.90;;;;;;5022899;28;20018;-81
2024/02/29 11:41:48;;;;;;;14.60;7.57;;;10.10;99.90;;;;;;5030781;28;20017;-81
2024/02/29 11:44:14;;;;;;;13.47;7.00;;;10.10;99.90;;;;;;5042601;28;20067;-81
2024/02/29 11:46:47;;;;;;;13.13;7.97;;;10.10;99.90;;;;;;5043170;28;20020;-81
2024/02/29 11:49:17;;;;;;;11.50;5.95;;;10.20;99.90;;;;;;5042683;28;20021;-81
2024/02/29 11:51:44;;;;;;;13.93;7.50;;;10.10;99.90;;;;;;5042435;28;20021;-81
2024/02/29 11:54:14;;;;;;;12.30;7.07;;;10.10;99.90;;;;;;5042955;28;20448;-82
2024/02/29 11:56:40;;;;;;;15.47;7.90;;;10.10;99.90;;;;;;5042520;28;20025;-82
2024/02/29 11:59:09;;;;;;;15.40;7.80;;;10.10;99.90;;;;;;5043152;28;20021;-82
2024/02/29 12:01:35;;;;;;;14.67;7.47;;;10.10;99.90;;;;;;5042450;28;20036;-82
2024/02/29 12:04:01;;;;;;;14.00;7.80;;;10.10;99.90;;;;;;5042896;28;20028;-81
2024/02/29 12:06:27;;;;;;;12.13;6.93;;;10.20;99.90;;;;;;5042602;28;20499;-82
2024/02/29 12:08:55;;;;;;;12.38;7.03;;;10.20;99.90;;;;;;5060200;28;20053;-82
2024/02/29 12:11:22;;;;;;;15.03;7.20;;;10.30;99.90;;;;;;5042106;28;20043;-82
2024/02/29 12:13:48;;;;;;;16.83;7.33;;;10.30;99.90;;;;;;5042141;28;20090;-82
2024/02/29 12:16:14;;;;;;;16.43;8.20;;;10.30;99.90;;;;;;5042884;28;20013;-82
2024/02/29 12:18:39;;;;;;;12.63;6.45;;;10.30;99.90;;;;;;5042236;28;20029;-82
2024/02/29 12:21:06;;;;;;;11.33;5.87;;;10.30;99.90;;;;;;5060454;28;20021;-83
2024/02/29 12:23:32;;;;;;;12.93;6.78;;;10.30;99.90;;;;;;5041960;28;20029;-82
2024/02/29 12:26:16;;;;;;;14.68;7.20;;;10.40;99.90;;;;;;5041864;28;20024;-83
2024/02/29 12:28:42;;;;;;;12.73;6.63;;;10.40;99.90;;;;;;5042440;28;20074;-82
2024/02/29 12:31:08;;;;;;;12.27;6.65;;;10.40;99.90;;;;;;5041595;28;20086;-82
2024/02/29 12:33:45;;;;;;;13.13;7.20;;;10.40;99.90;;;;;;5042530;28;20033;-83
2024/02/29 12:36:13;;;;;;;12.07;6.40;;;10.40;99.90;;;;;;5041517;28;20108;-82
2024/02/29 12:38:40;;;;;;;12.77;6.75;;;10.50;99.90;;;;;;5041321;28;20076;-81